createdAt,value
2018-06-21T00:01:15.170Z,21.00
2018-06-21T00:03:43.482Z,20.99
2018-06-21T00:06:11.851Z,20.95
2018-06-21T00:08:40.199Z,20.92
2018-06-21T00:11:08.510Z,20.87
2018-06-21T00:13:36.896Z,20.84
2018-06-21T00:16:05.559Z,20.81
2018-06-21T00:18:34.074Z,20.77
2018-06-21T00:21:02.642Z,20.74
2018-06-21T00:23:30.964Z,20.72
2018-06-21T00:25:59.300Z,20.70
2018-06-21T00:28:27.642Z,20.67
2018-06-21T00:30:55.980Z,20.63
2018-06-21T00:33:24.321Z,20.61
2018-06-21T00:35:52.680Z,20.59
2018-06-21T00:38:21.157Z,20.55
2018-06-21T00:40:49.495Z,20.55
2018-06-21T00:43:17.820Z,20.51
2018-06-21T00:45:46.166Z,20.49
2018-06-21T00:48:14.568Z,20.45
2018-06-21T00:50:42.880Z,20.44
2018-06-21T00:53:12.050Z,20.42
2018-06-21T00:55:51.922Z,20.39
2018-06-21T00:58:20.277Z,20.38
2018-06-21T01:00:48.627Z,20.35
2018-06-21T01:03:16.955Z,20.33
2018-06-21T01:05:45.312Z,20.32
2018-06-21T01:08:14.506Z,20.27
2018-06-21T01:10:42.863Z,20.23
2018-06-21T01:13:11.203Z,20.20
2018-06-21T01:15:39.547Z,20.19
2018-06-21T01:18:07.892Z,20.17
2018-06-21T01:20:36.231Z,20.15
2018-06-21T01:23:04.855Z,20.13
2018-06-21T01:25:33.251Z,20.10
2018-06-21T01:28:01.702Z,20.08
2018-06-21T01:30:30.051Z,20.06
2018-06-21T01:32:58.405Z,20.04
2018-06-21T01:35:26.749Z,20.04
2018-06-21T01:37:55.101Z,20.00
2018-06-21T01:40:23.441Z,19.98
2018-06-21T01:42:51.785Z,19.97
2018-06-21T01:45:20.165Z,19.94
2018-06-21T01:47:48.508Z,19.91
2018-06-21T01:50:16.853Z,19.92
2018-06-21T01:52:45.591Z,19.93
2018-06-21T01:55:13.950Z,19.92
2018-06-21T01:57:42.632Z,19.93
2018-06-21T02:00:10.985Z,19.90
2018-06-21T02:02:39.330Z,19.89
2018-06-21T02:05:07.674Z,19.85
2018-06-21T02:07:36.455Z,19.83
2018-06-21T02:10:04.908Z,19.80
2018-06-21T02:12:33.256Z,19.79
2018-06-21T02:15:01.597Z,19.79
2018-06-21T02:17:29.949Z,19.79
2018-06-21T02:19:58.293Z,19.79
2018-06-21T02:22:26.638Z,19.75
2018-06-21T02:24:55.024Z,19.78
2018-06-21T02:27:23.396Z,19.77
2018-06-21T02:29:51.755Z,19.78
2018-06-21T02:32:20.080Z,19.77
2018-06-21T02:34:48.463Z,19.76
2018-06-21T02:37:16.811Z,19.75
2018-06-21T02:39:45.150Z,19.75
2018-06-21T02:42:13.596Z,19.74
2018-06-21T02:44:42.040Z,19.73
2018-06-21T02:47:10.395Z,19.71
2018-06-21T02:49:38.735Z,19.71
2018-06-21T02:52:07.115Z,19.73
2018-06-21T02:54:35.760Z,19.71
2018-06-21T02:57:04.250Z,19.71
2018-06-21T02:59:32.700Z,19.70
2018-06-21T03:02:01.023Z,19.70
2018-06-21T03:04:29.355Z,19.68
2018-06-21T03:06:57.704Z,19.69
2018-06-21T03:09:26.062Z,19.70
2018-06-21T03:11:54.405Z,19.66
2018-06-21T03:14:22.737Z,19.68
2018-06-21T03:16:51.121Z,19.69
2018-06-21T03:19:19.460Z,19.68
2018-06-21T03:21:47.805Z,19.69
2018-06-21T03:24:16.148Z,19.65
2018-06-21T03:26:44.476Z,19.69
2018-06-21T03:29:12.835Z,19.70
2018-06-21T03:31:41.186Z,19.68
2018-06-21T03:34:09.519Z,19.67
2018-06-21T03:36:37.946Z,19.68
2018-06-21T03:39:07.014Z,19.71
2018-06-21T03:41:35.394Z,19.71
2018-06-21T03:44:03.795Z,19.73
2018-06-21T03:46:32.128Z,19.76
2018-06-21T03:49:00.491Z,19.78
2018-06-21T03:51:28.836Z,19.80
2018-06-21T03:53:57.210Z,19.82
2018-06-21T03:56:25.592Z,19.86
2018-06-21T03:58:53.936Z,19.87
2018-06-21T04:01:22.282Z,19.89
2018-06-21T04:03:50.627Z,19.92
2018-06-21T04:06:19.007Z,19.94
2018-06-21T04:08:47.357Z,19.97
2018-06-21T04:11:15.763Z,20.02
2018-06-21T04:13:44.112Z,20.06
2018-06-21T04:16:12.662Z,20.08
2018-06-21T04:18:41.245Z,20.11
2018-06-21T04:21:10.104Z,20.14
2018-06-21T04:23:38.514Z,20.16
2018-06-21T04:26:06.899Z,20.18
2018-06-21T04:28:35.547Z,20.22
2018-06-21T04:31:03.879Z,20.27
2018-06-21T04:33:32.238Z,20.28
2018-06-21T04:36:00.579Z,20.35
2018-06-21T04:38:28.935Z,20.39
2018-06-21T04:40:58.115Z,20.45
2018-06-21T04:43:26.469Z,20.49
2018-06-21T04:45:54.863Z,20.54
2018-06-21T04:48:23.193Z,20.59
2018-06-21T04:50:51.533Z,20.65
2018-06-21T04:53:19.881Z,20.66
2018-06-21T04:55:48.227Z,20.73
2018-06-21T04:58:16.609Z,20.80
2018-06-21T05:00:46.082Z,20.87
2018-06-21T05:03:14.452Z,20.95
2018-06-21T05:05:42.935Z,21.02
2018-06-21T05:08:11.300Z,21.08
2018-06-21T05:10:39.681Z,21.14
2018-06-21T05:13:08.043Z,21.24
2018-06-21T05:15:36.392Z,21.36
2018-06-21T05:18:04.764Z,21.45
2018-06-21T05:20:33.101Z,21.53
2018-06-21T05:23:01.595Z,21.65
2018-06-21T05:25:29.960Z,21.76
2018-06-21T05:27:58.316Z,21.94
2018-06-21T05:30:26.658Z,22.09
2018-06-21T05:32:55.624Z,22.16
2018-06-21T05:35:24.032Z,22.19
2018-06-21T05:37:52.411Z,22.23
2018-06-21T05:40:28.924Z,22.37
2018-06-21T05:42:57.430Z,22.42
2018-06-21T05:45:25.814Z,22.66
2018-06-21T05:47:54.177Z,22.85
2018-06-21T05:50:22.664Z,22.99
2018-06-21T05:52:51.244Z,23.15
2018-06-21T05:55:19.733Z,23.20
2018-06-21T05:57:48.105Z,23.16
2018-06-21T06:00:16.461Z,23.52
2018-06-21T06:02:44.812Z,23.49
2018-06-21T06:05:13.149Z,23.50
2018-06-21T06:07:41.626Z,23.48
2018-06-21T06:10:10.033Z,23.58
2018-06-21T06:12:38.391Z,23.94
2018-06-21T06:15:06.765Z,23.76
2018-06-21T06:17:35.587Z,23.85
2018-06-21T06:20:04.029Z,23.95
2018-06-21T06:22:32.347Z,23.85
2018-06-21T06:25:00.730Z,23.82
2018-06-21T06:27:29.113Z,23.80
2018-06-21T06:29:57.448Z,24.03
2018-06-21T06:32:25.825Z,24.07
2018-06-21T06:34:54.244Z,23.87
2018-06-21T06:37:22.611Z,23.94
2018-06-21T06:39:50.966Z,23.84
2018-06-21T06:42:19.336Z,23.88
2018-06-21T06:44:47.707Z,24.02
2018-06-21T06:47:16.113Z,24.04
2018-06-21T06:49:44.484Z,24.04
2018-06-21T06:52:12.851Z,24.22
2018-06-21T06:54:41.391Z,24.17
2018-06-21T06:57:09.724Z,24.33
2018-06-21T06:59:38.092Z,24.38
2018-06-21T07:02:06.478Z,24.34
2018-06-21T07:04:34.860Z,24.58
2018-06-21T07:07:03.310Z,25.00
2018-06-21T07:09:31.649Z,25.25
2018-06-21T07:11:59.996Z,25.38
2018-06-21T07:14:28.387Z,25.28
2018-06-21T07:16:56.749Z,25.28
2018-06-21T07:19:25.100Z,25.44
2018-06-21T07:21:53.492Z,25.67
2018-06-21T07:24:21.902Z,25.89
2018-06-21T07:26:50.377Z,25.84
2018-06-21T07:29:18.743Z,26.14
2018-06-21T07:31:47.072Z,26.39
2018-06-21T07:34:15.436Z,26.92
2018-06-21T07:36:43.787Z,27.17
2018-06-21T07:39:12.132Z,27.19
2018-06-21T07:41:40.481Z,27.24
2018-06-21T07:44:08.813Z,27.17
2018-06-21T07:46:37.168Z,27.98
2018-06-21T07:49:05.565Z,28.49
2018-06-21T07:51:33.956Z,28.61
2018-06-21T07:54:02.310Z,28.57
2018-06-21T07:56:30.689Z,28.59
2018-06-21T07:58:59.080Z,28.38
2018-06-21T08:01:27.387Z,28.53
2018-06-21T08:03:55.821Z,29.24
2018-06-21T08:06:24.179Z,29.04
2018-06-21T08:08:52.515Z,28.96
2018-06-21T08:11:20.928Z,28.82
2018-06-21T08:13:49.340Z,28.67
2018-06-21T08:16:17.677Z,28.60
2018-06-21T08:18:46.044Z,28.42
2018-06-21T08:21:14.401Z,28.39
2018-06-21T08:23:42.794Z,28.21
2018-06-21T08:26:11.152Z,28.56
2018-06-21T08:28:39.571Z,29.10
2018-06-21T08:31:07.900Z,29.30
2018-06-21T08:33:36.227Z,29.24
2018-06-21T08:36:04.614Z,29.47
2018-06-21T08:38:32.930Z,29.19
2018-06-21T08:41:01.262Z,29.93
2018-06-21T08:43:29.609Z,29.69
2018-06-21T08:45:58.001Z,30.19
2018-06-21T08:48:26.287Z,30.51
2018-06-21T08:50:54.621Z,30.67
2018-06-21T08:53:23.000Z,30.54
2018-06-21T08:55:51.369Z,31.38
2018-06-21T08:58:19.905Z,31.90
2018-06-21T09:00:48.267Z,31.09
2018-06-21T09:03:16.607Z,31.51
2018-06-21T09:05:44.936Z,31.83
2018-06-21T09:08:13.276Z,32.35
2018-06-21T09:10:41.779Z,32.57
2018-06-21T09:13:10.122Z,33.45
2018-06-21T09:15:38.460Z,33.79
2018-06-21T09:18:06.794Z,33.50
2018-06-21T09:20:35.142Z,33.59
2018-06-21T09:23:03.501Z,34.73
2018-06-21T09:25:31.869Z,34.58
2018-06-21T09:28:00.218Z,35.58
2018-06-21T09:30:28.553Z,35.33
2018-06-21T09:32:56.876Z,35.72
2018-06-21T09:35:25.197Z,35.83
2018-06-21T09:37:58.825Z,35.29
2018-06-21T09:40:32.517Z,36.39
2018-06-21T09:43:06.163Z,35.33
2018-06-21T09:45:39.811Z,35.50
2018-06-21T09:48:14.089Z,34.45
2018-06-21T09:50:42.466Z,34.32
2018-06-21T09:53:10.848Z,32.86
2018-06-21T09:55:39.293Z,32.77
2018-06-21T09:58:07.620Z,33.18
2018-06-21T10:00:41.280Z,33.12
2018-06-21T10:03:09.623Z,33.29
2018-06-21T10:05:39.735Z,33.37
2018-06-21T10:08:08.146Z,33.53
2018-06-21T10:10:36.549Z,33.55
2018-06-21T10:13:04.938Z,32.41
2018-06-21T10:15:33.275Z,32.22
2018-06-21T10:18:02.016Z,31.98
2018-06-21T10:20:30.384Z,31.82
2018-06-21T10:22:58.787Z,31.56
2018-06-21T10:25:27.189Z,31.94
2018-06-21T10:27:55.517Z,32.13
2018-06-21T10:30:24.402Z,32.04
2018-06-21T10:32:53.245Z,32.13
2018-06-21T10:35:21.605Z,30.73
2018-06-21T10:37:49.960Z,29.20
2018-06-21T10:40:18.366Z,28.37
2018-06-21T10:42:46.744Z,27.22
2018-06-21T10:45:15.163Z,26.84
2018-06-21T10:47:43.567Z,25.31
2018-06-21T10:50:11.887Z,24.47
2018-06-21T10:52:40.230Z,24.09
2018-06-21T10:55:08.702Z,24.01
2018-06-21T10:57:37.033Z,23.56
2018-06-21T11:00:05.787Z,23.14
2018-06-21T11:02:34.144Z,22.79
2018-06-21T11:05:02.514Z,22.32
2018-06-21T11:07:30.841Z,22.14
2018-06-21T11:12:26.617Z,21.87
2018-06-21T11:14:55.072Z,21.81
2018-06-21T11:17:23.321Z,21.73
2018-06-21T11:19:51.692Z,21.46
2018-06-21T11:22:20.033Z,21.71
2018-06-21T11:24:48.367Z,21.43
2018-06-21T11:27:16.715Z,21.51
2018-06-21T11:29:45.075Z,21.37
2018-06-21T11:32:13.474Z,21.19
2018-06-21T11:34:44.917Z,21.17
2018-06-21T11:37:13.274Z,21.01
2018-06-21T11:39:41.629Z,21.11
2018-06-21T11:42:09.957Z,21.00
2018-06-21T11:44:38.309Z,20.93
2018-06-21T11:47:06.647Z,20.87
2018-06-21T11:49:35.072Z,20.75
2018-06-21T11:52:03.475Z,20.50
2018-06-21T11:54:31.804Z,20.33
2018-06-21T11:57:00.132Z,20.18
2018-06-21T11:59:28.453Z,19.92
2018-06-21T12:01:56.788Z,19.50
2018-06-21T12:04:25.580Z,19.81
2018-06-21T12:06:54.541Z,19.45
2018-06-21T12:09:22.870Z,19.27
2018-06-21T12:11:51.229Z,18.82
2018-06-21T12:14:19.583Z,18.70
2018-06-21T12:16:47.928Z,18.52
2018-06-21T12:19:16.363Z,18.19
2018-06-21T12:21:44.723Z,18.16
2018-06-21T12:24:13.562Z,17.99
2018-06-21T12:26:42.116Z,17.91
2018-06-21T12:29:10.558Z,17.92
2018-06-21T12:31:39.024Z,17.82
2018-06-21T12:34:07.368Z,17.88
2018-06-21T12:36:35.763Z,17.79
2018-06-21T12:39:05.931Z,17.67
2018-06-21T12:41:34.521Z,17.64
2018-06-21T12:44:03.491Z,17.66
2018-06-21T12:46:33.869Z,17.63
2018-06-21T12:49:02.257Z,17.48
2018-06-21T12:51:30.633Z,17.50
2018-06-21T12:53:58.996Z,17.43
2018-06-21T12:56:27.501Z,17.35
2018-06-21T12:58:55.857Z,17.37
2018-06-21T13:01:24.206Z,17.34
2018-06-21T13:03:53.008Z,17.47
2018-06-21T13:06:21.355Z,17.42
2018-06-21T13:09:00.984Z,17.19
2018-06-21T13:12:39.376Z,17.17
2018-06-21T13:15:07.746Z,17.26
2018-06-21T13:17:36.261Z,17.37
2018-06-21T13:20:05.878Z,17.55
2018-06-21T13:22:34.260Z,17.62
2018-06-21T13:25:02.669Z,17.91
2018-06-21T13:27:31.015Z,18.03
2018-06-21T13:29:59.353Z,18.10
2018-06-21T13:32:27.760Z,18.15
2018-06-21T13:34:56.114Z,18.29
2018-06-21T13:37:25.032Z,18.19
2018-06-21T13:39:53.420Z,18.11
2018-06-21T13:42:21.784Z,18.24
2018-06-21T13:44:50.185Z,18.34
2018-06-21T13:47:18.593Z,18.34
2018-06-21T13:49:47.109Z,18.24
2018-06-21T13:52:15.688Z,18.11
2018-06-21T13:54:44.182Z,18.10
2018-06-21T13:57:12.758Z,17.83
2018-06-21T13:59:41.218Z,17.72
2018-06-21T14:02:09.611Z,17.52
2018-06-21T14:04:37.963Z,17.46
2018-06-21T14:07:06.312Z,17.25
2018-06-21T14:09:34.720Z,17.43
2018-06-21T14:12:03.320Z,17.20
2018-06-21T14:14:31.817Z,17.25
2018-06-21T14:17:01.022Z,17.12
2018-06-21T14:19:29.500Z,16.85
2018-06-21T14:21:57.899Z,16.80
2018-06-21T14:24:28.016Z,16.83
2018-06-21T14:26:56.343Z,16.75
2018-06-21T14:29:24.866Z,16.73
2018-06-21T14:31:53.236Z,16.78
2018-06-21T14:34:21.595Z,16.84
2018-06-21T14:36:49.945Z,16.86
2018-06-21T14:39:18.284Z,16.85
2018-06-21T14:41:46.644Z,16.97
2018-06-21T14:44:15.160Z,16.85
2018-06-21T14:46:43.478Z,16.92
2018-06-21T14:49:11.871Z,16.98
2018-06-21T14:51:40.205Z,17.01
2018-06-21T14:54:08.586Z,16.92
2018-06-21T14:56:37.553Z,16.90
2018-06-21T14:59:06.044Z,16.89
2018-06-21T15:01:34.404Z,16.90
2018-06-21T15:04:02.748Z,16.82
2018-06-21T15:06:31.139Z,16.94
2018-06-21T15:08:59.543Z,16.98
2018-06-21T15:11:27.822Z,16.97
2018-06-21T15:13:56.164Z,17.06
2018-06-21T15:16:24.814Z,16.97
2018-06-21T15:18:53.157Z,17.05
2018-06-21T15:21:21.519Z,17.10
2018-06-21T15:23:49.848Z,17.15
2018-06-21T15:26:18.196Z,17.15
2018-06-21T15:28:46.566Z,17.18
2018-06-21T15:31:14.949Z,17.28
2018-06-21T15:33:43.332Z,17.38
2018-06-21T15:36:11.656Z,17.45
2018-06-21T15:38:40.212Z,17.48
2018-06-21T15:41:08.568Z,17.54
2018-06-21T15:43:36.916Z,17.64
2018-06-21T15:46:05.339Z,17.72
2018-06-21T15:48:33.676Z,17.80
2018-06-21T15:51:02.017Z,17.86
2018-06-21T15:53:30.394Z,17.88
2018-06-21T15:55:58.838Z,17.83
2018-06-21T15:58:27.364Z,17.83
2018-06-21T16:00:55.828Z,17.92
2018-06-21T16:03:24.632Z,17.99
2018-06-21T16:05:53.029Z,17.97
2018-06-21T16:08:21.460Z,17.96
2018-06-21T16:10:49.833Z,17.94
2018-06-21T16:13:18.560Z,17.93
2018-06-21T16:15:48.636Z,17.86
2018-06-21T16:18:17.155Z,17.90
2018-06-21T16:20:45.607Z,17.92
2018-06-21T16:23:14.107Z,17.83
2018-06-21T16:25:43.420Z,17.71
2018-06-21T16:28:11.805Z,17.82
2018-06-21T16:30:40.146Z,17.74
2018-06-21T16:33:08.968Z,17.63
2018-06-21T16:35:37.309Z,17.61
2018-06-21T16:38:05.821Z,17.69
2018-06-21T16:40:34.159Z,17.80
2018-06-21T16:43:02.488Z,17.78
2018-06-21T16:45:30.864Z,17.78
2018-06-21T16:47:59.239Z,17.79
2018-06-21T16:50:27.709Z,17.74
2018-06-21T16:52:56.065Z,17.70
2018-06-21T16:55:24.414Z,17.80
2018-06-21T16:57:52.768Z,17.67
2018-06-21T17:00:21.203Z,17.67
2018-06-21T17:02:49.555Z,17.71
2018-06-21T17:05:17.966Z,17.66
2018-06-21T17:07:46.312Z,17.68
2018-06-21T17:10:14.691Z,17.66
2018-06-21T17:12:43.048Z,17.60
2018-06-21T17:15:11.449Z,17.55
2018-06-21T17:17:40.233Z,17.60
2018-06-21T17:20:08.545Z,17.61
2018-06-21T17:22:36.929Z,17.60
2018-06-21T17:25:06.051Z,17.43
2018-06-21T17:27:34.545Z,17.37
2018-06-21T17:30:03.099Z,17.36
2018-06-21T17:32:31.500Z,17.35
2018-06-21T17:35:00.700Z,17.36
2018-06-21T17:37:29.386Z,17.36
2018-06-21T17:39:57.971Z,17.22
2018-06-21T17:42:26.380Z,17.11
2018-06-21T17:44:54.766Z,17.12
2018-06-21T17:47:23.240Z,17.05
2018-06-21T17:49:51.653Z,16.92
2018-06-21T17:52:20.046Z,16.88
2018-06-21T17:54:48.428Z,16.74
2018-06-21T17:57:16.974Z,16.74
2018-06-21T17:59:45.892Z,16.71
2018-06-21T18:02:14.245Z,16.56
2018-06-21T18:04:42.873Z,16.58
2018-06-21T18:07:11.269Z,16.53
2018-06-21T18:09:39.615Z,16.52
2018-06-21T18:12:08.028Z,16.51
2018-06-21T18:14:36.372Z,16.49
2018-06-21T18:17:04.740Z,16.51
2018-06-21T18:19:33.160Z,16.50
2018-06-21T18:22:01.583Z,16.49
2018-06-21T18:24:29.946Z,16.52
2018-06-21T18:26:58.353Z,16.51
2018-06-21T18:29:26.752Z,16.39
2018-06-21T18:31:55.260Z,16.42
2018-06-21T18:34:23.635Z,16.41
2018-06-21T18:36:52.063Z,16.39
2018-06-21T18:39:20.478Z,16.41
2018-06-21T18:41:48.851Z,16.33
2018-06-21T18:44:17.260Z,16.34
2018-06-21T18:46:46.328Z,16.30
2018-06-21T18:49:14.672Z,16.26
2018-06-21T18:51:43.043Z,16.26
2018-06-21T18:54:11.416Z,16.29
2018-06-21T18:56:39.784Z,16.20
2018-06-21T18:59:08.107Z,16.19
2018-06-21T19:01:36.460Z,16.01
2018-06-21T19:04:04.836Z,16.00
2018-06-21T19:06:38.700Z,15.94
2018-06-21T19:10:15.101Z,15.84
2018-06-21T19:12:43.497Z,15.72
2018-06-21T19:15:12.047Z,15.73
2018-06-21T19:17:40.397Z,15.75
2018-06-21T19:20:08.940Z,15.66
2018-06-21T19:22:37.347Z,15.66
2018-06-21T19:25:05.848Z,15.62
2018-06-21T19:27:34.297Z,15.52
2018-06-21T19:30:02.631Z,15.50
2018-06-21T19:32:31.390Z,15.40
2018-06-21T19:34:59.837Z,15.31
2018-06-21T19:37:28.255Z,15.33
2018-06-21T19:39:56.680Z,15.23
2018-06-21T19:42:25.115Z,15.19
2018-06-21T19:44:53.546Z,15.12
2018-06-21T19:47:22.893Z,15.11
2018-06-21T19:49:51.273Z,14.98
2018-06-21T19:52:19.624Z,14.98
2018-06-21T19:54:47.975Z,14.97
2018-06-21T19:57:17.079Z,14.92
2018-06-21T19:59:45.512Z,14.95
2018-06-21T20:02:13.928Z,14.85
2018-06-21T20:04:42.443Z,14.86
2018-06-21T20:07:11.815Z,14.89
2018-06-21T20:09:40.253Z,14.85
2018-06-21T20:12:08.703Z,14.74
2018-06-21T20:14:37.654Z,14.73
2018-06-21T20:17:06.184Z,14.75
2018-06-21T20:19:39.787Z,14.67
2018-06-21T20:22:08.202Z,14.70
2018-06-21T20:24:36.880Z,14.68
2018-06-21T20:27:05.287Z,14.56
2018-06-21T20:29:33.624Z,14.54
2018-06-21T20:32:02.123Z,14.58
2018-06-21T20:34:30.704Z,14.52
2018-06-21T20:36:59.286Z,14.49
2018-06-21T20:39:27.717Z,14.43
2018-06-21T20:41:56.356Z,14.38
2018-06-21T20:44:24.714Z,14.40
2018-06-21T20:46:53.347Z,14.40
2018-06-21T20:49:21.796Z,14.44
2018-06-21T20:51:50.279Z,14.42
2018-06-21T20:54:18.624Z,14.45
2018-06-21T20:56:47.044Z,14.34
2018-06-21T20:59:15.385Z,14.34
2018-06-21T21:01:43.727Z,14.27
2018-06-21T21:04:12.056Z,14.22
2018-06-21T21:06:40.400Z,14.23
2018-06-21T21:09:08.948Z,14.26
2018-06-21T21:11:37.298Z,14.22
2018-06-21T21:14:05.656Z,14.21
2018-06-21T21:16:34.018Z,14.23
2018-06-21T21:19:02.538Z,14.21
2018-06-21T21:21:30.883Z,14.23
2018-06-21T21:23:59.244Z,14.18
2018-06-21T21:26:27.639Z,14.15
2018-06-21T21:28:55.969Z,14.16
2018-06-21T21:31:24.328Z,14.15
2018-06-21T21:33:52.861Z,14.13
2018-06-21T21:36:21.240Z,14.14
2018-06-21T21:38:49.609Z,14.12
2018-06-21T21:41:17.953Z,14.09
2018-06-21T21:43:46.299Z,14.06
2018-06-21T21:46:14.627Z,14.02
2018-06-21T21:48:43.088Z,14.04
2018-06-21T21:51:11.617Z,14.02
2018-06-21T21:53:40.089Z,13.94
2018-06-21T21:56:08.426Z,13.87
2018-06-21T21:58:36.780Z,13.88
2018-06-21T22:01:05.179Z,13.93
2018-06-21T22:03:33.484Z,13.89
2018-06-21T22:06:01.826Z,13.88
2018-06-21T22:08:30.187Z,13.82
2018-06-21T22:10:58.586Z,13.90
2018-06-21T22:13:26.949Z,13.89
2018-06-21T22:15:55.392Z,13.90
2018-06-21T22:18:23.736Z,13.86
2018-06-21T22:20:52.064Z,13.85
2018-06-21T22:23:20.399Z,13.83
2018-06-21T22:25:48.755Z,13.82
2018-06-21T22:28:17.100Z,13.81
2018-06-21T22:30:45.426Z,13.77
2018-06-21T22:33:14.007Z,13.81
2018-06-21T22:35:42.525Z,13.81
2018-06-21T22:38:10.906Z,13.70
2018-06-21T22:40:39.234Z,13.66
2018-06-21T22:43:07.581Z,13.71
2018-06-21T22:45:35.956Z,13.63
2018-06-21T22:48:04.304Z,13.62
2018-06-21T22:50:32.691Z,13.62
2018-06-21T22:53:01.032Z,13.61
2018-06-21T22:55:29.390Z,13.61
2018-06-21T22:57:57.826Z,13.56
2018-06-21T23:00:26.168Z,13.58
2018-06-21T23:02:54.497Z,13.53
2018-06-21T23:05:22.859Z,13.53
2018-06-21T23:07:51.204Z,13.51
2018-06-21T23:10:19.525Z,13.49
2018-06-21T23:12:47.875Z,13.45
2018-06-21T23:15:16.235Z,13.44
2018-06-21T23:17:44.552Z,13.36
2018-06-21T23:20:12.914Z,13.36
2018-06-21T23:22:41.252Z,13.31
2018-06-21T23:25:09.584Z,13.27
2018-06-21T23:27:37.906Z,13.22
2018-06-21T23:30:06.253Z,13.24
2018-06-21T23:32:34.614Z,13.20
2018-06-21T23:35:02.945Z,13.13
2018-06-21T23:37:31.275Z,13.17
2018-06-21T23:39:59.618Z,13.21
2018-06-21T23:42:28.015Z,13.06
2018-06-21T23:44:56.339Z,13.08
2018-06-21T23:47:24.672Z,13.05
2018-06-21T23:49:53.011Z,13.05
2018-06-21T23:52:21.346Z,13.12
2018-06-21T23:54:49.666Z,13.06
2018-06-21T23:57:18.015Z,12.98
2018-06-21T23:59:46.353Z,13.00
